Time;durP1;ratioP1;P1;durP2;ratioP2;P2;SDS_P1;SDS_P2;PMS_P1;PMS_P2;Temp;Humidity;BMP_temperature;BMP_pressure;BME280_temperature;BME280_humidity;BME280_pressure;Samples;Min_cycle;Max_cycle;Signal;HPM_P1;HPM_P2
2023/06/12 00:01:31;;;;;;;4.72;3.45;;;;;;;;;;4988857;28;20056;-82
2023/06/12 00:03:57;;;;;;;4.88;3.55;;;;;;;;;;4981158;28;20029;-82
2023/06/12 00:06:23;;;;;;;8.80;3.33;;;;;;;;;;4986853;28;20057;-79
2023/06/12 00:08:48;;;;;;;7.00;3.13;;;;;;;;;;4996466;28;20069;-83
2023/06/12 00:11:14;;;;;;;4.10;3.00;;;;;;;;;;5001399;28;20037;-78
2023/06/12 00:13:40;;;;;;;6.80;3.42;;;;;;;;;;5012445;28;20050;-80
2023/06/12 00:16:06;;;;;;;5.53;3.33;;;;;;;;;;5003601;28;20030;-82
2023/06/12 00:18:31;;;;;;;4.95;3.53;;;;;;;;;;5000181;28;20756;-80
2023/06/12 00:20:57;;;;;;;7.72;3.40;;;;;;;;;;4988866;28;20018;-80
2023/06/12 00:23:22;;;;;;;4.53;3.30;;;;;;;;;;5007681;28;20076;-81
2023/06/12 00:25:47;;;;;;;5.55;3.42;;;;;;;;;;5001296;28;20033;-83
2023/06/12 00:28:13;;;;;;;8.30;4.00;;;;;;;;;;4991149;28;20028;-79
2023/06/12 00:30:38;;;;;;;5.07;3.08;;;;;;;;;;5005779;28;20077;-79
2023/06/12 00:33:03;;;;;;;4.03;3.20;;;;;;;;;;5019247;28;20034;-79
2023/06/12 00:35:29;;;;;;;4.22;3.28;;;;;;;;;;4987360;28;20018;-81
2023/06/12 00:37:55;;;;;;;5.80;3.85;;;;;;;;;;5001290;28;20054;-80
2023/06/12 00:40:21;;;;;;;3.58;3.17;;;;;;;;;;4984496;28;20046;-81
2023/06/12 00:42:50;;;;;;;3.80;3.33;;;;;;;;;;4978313;28;20113;-81
2023/06/12 00:45:18;;;;;;;5.18;2.97;;;;;;;;;;4984435;28;20021;-81
2023/06/12 00:47:46;;;;;;;4.13;3.20;;;;;;;;;;5001930;28;20033;-81
2023/06/12 00:50:16;;;;;;;4.18;3.38;;;;;;;;;;4996546;28;20023;-81
2023/06/12 00:52:46;;;;;;;5.53;4.18;;;;;;;;;;5001630;28;20034;-81
2023/06/12 00:55:11;;;;;;;3.88;3.10;;;;;;;;;;4998905;28;20040;-81
2023/06/12 00:57:38;;;;;;;4.45;3.33;;;;;;;;;;5007070;28;20022;-81
2023/06/12 01:00:07;;;;;;;5.15;3.40;;;;;;;;;;4985649;28;20050;-82
2023/06/12 01:02:39;;;;;;;4.35;3.25;;;;;;;;;;5003281;28;20026;-82
2023/06/12 01:05:10;;;;;;;5.28;3.20;;;;;;;;;;5002377;28;20026;-81
2023/06/12 01:07:44;;;;;;;5.35;3.33;;;;;;;;;;5003859;28;20030;-80
2023/06/12 01:10:19;;;;;;;3.88;3.00;;;;;;;;;;5012305;28;20022;-80
2023/06/12 01:12:45;;;;;;;4.95;3.58;;;;;;;;;;5013181;28;20022;-80
2023/06/12 01:15:10;;;;;;;5.70;3.70;;;;;;;;;;4995153;28;20022;-81
2023/06/12 01:17:40;;;;;;;4.85;3.50;;;;;;;;;;5005714;28;20041;-82
2023/06/12 01:20:07;;;;;;;4.55;3.15;;;;;;;;;;5003888;28;20026;-79
2023/06/12 01:22:38;;;;;;;5.10;2.95;;;;;;;;;;5002991;28;20054;-82
2023/06/12 01:25:23;;;;;;;6.15;3.30;;;;;;;;;;5002763;28;20022;-81
2023/06/12 01:28:27;;;;;;;6.35;3.05;;;;;;;;;;5009892;28;20042;-83
2023/06/12 01:31:13;;;;;;;3.90;3.20;;;;;;;;;;5008360;28;20062;-82
2023/06/12 01:33:42;;;;;;;3.55;3.13;;;;;;;;;;4989793;28;20050;-83
2023/06/12 01:36:13;;;;;;;3.35;3.00;;;;;;;;;;4989337;28;20440;-80
2023/06/12 01:38:40;;;;;;;3.90;3.10;;;;;;;;;;4989603;28;20034;-82
2023/06/12 01:41:06;;;;;;;4.70;3.08;;;;;;;;;;5006439;28;20030;-82
2023/06/12 01:43:32;;;;;;;4.68;3.00;;;;;;;;;;4978418;28;20526;-81
2023/06/12 01:45:57;;;;;;;6.82;3.47;;;;;;;;;;5003526;28;20082;-81
2023/06/12 01:48:22;;;;;;;3.55;2.97;;;;;;;;;;5001224;28;20046;-81
2023/06/12 01:50:48;;;;;;;6.28;3.40;;;;;;;;;;5005796;28;20027;-81
2023/06/12 01:53:15;;;;;;;3.80;2.97;;;;;;;;;;5005490;28;20037;-82
2023/06/12 01:55:41;;;;;;;3.60;2.65;;;;;;;;;;5004865;28;20026;-80
2023/06/12 01:58:06;;;;;;;4.25;3.40;;;;;;;;;;5005567;28;20125;-81
2023/06/12 02:00:32;;;;;;;4.68;2.92;;;;;;;;;;5013012;28;20045;-81
2023/06/12 02:02:57;;;;;;;4.88;2.90;;;;;;;;;;4988791;28;20053;-80
2023/06/12 02:05:22;;;;;;;4.35;3.13;;;;;;;;;;5004863;28;20030;-82
2023/06/12 02:07:48;;;;;;;5.20;3.65;;;;;;;;;;4989631;28;20089;-82
2023/06/12 02:10:15;;;;;;;5.88;3.30;;;;;;;;;;5012370;28;20046;-80
2023/06/12 02:12:40;;;;;;;3.38;2.90;;;;;;;;;;5008976;28;20034;-81
2023/06/12 02:15:06;;;;;;;3.90;3.20;;;;;;;;;;5005484;28;20031;-81
2023/06/12 02:17:32;;;;;;;3.47;2.90;;;;;;;;;;5006258;28;20022;-80
2023/06/12 02:19:58;;;;;;;3.65;3.30;;;;;;;;;;5005529;28;20022;-81
2023/06/12 02:22:23;;;;;;;5.32;3.35;;;;;;;;;;5004675;28;20054;-81
2023/06/12 02:24:48;;;;;;;3.88;3.17;;;;;;;;;;5005252;28;20022;-82
2023/06/12 02:27:14;;;;;;;3.97;2.95;;;;;;;;;;4986814;28;20053;-81
2023/06/12 02:29:39;;;;;;;3.80;3.30;;;;;;;;;;5004126;28;20029;-82
2023/06/12 02:32:05;;;;;;;3.72;3.17;;;;;;;;;;5002127;28;20456;-79
2023/06/12 02:34:30;;;;;;;5.75;3.10;;;;;;;;;;4987043;28;20037;-82
2023/06/12 02:36:55;;;;;;;4.35;3.25;;;;;;;;;;5003759;28;20050;-83
2023/06/12 02:39:21;;;;;;;5.68;3.70;;;;;;;;;;4988346;28;20046;-81
2023/06/12 02:41:48;;;;;;;4.20;3.20;;;;;;;;;;5005092;28;20031;-83
2023/06/12 02:44:13;;;;;;;5.55;3.00;;;;;;;;;;4987962;28;20027;-83
2023/06/12 02:46:53;;;;;;;3.67;3.00;;;;;;;;;;5003548;28;20026;-83
2023/06/12 02:49:19;;;;;;;3.33;3.03;;;;;;;;;;4988115;28;20041;-82
2023/06/12 02:51:45;;;;;;;5.68;3.35;;;;;;;;;;5004034;28;20034;-81
2023/06/12 02:54:11;;;;;;;4.32;3.28;;;;;;;;;;5005364;28;20046;-83
2023/06/12 02:56:36;;;;;;;4.90;3.08;;;;;;;;;;4986471;28;20030;-81
2023/06/12 02:59:03;;;;;;;6.95;3.67;;;;;;;;;;5004383;28;20034;-83
2023/06/12 03:01:29;;;;;;;5.80;3.42;;;;;;;;;;5004898;28;20078;-81
2023/06/12 03:03:56;;;;;;;6.50;3.15;;;;;;;;;;5003858;28;20042;-81
2023/06/12 03:06:26;;;;;;;4.47;3.17;;;;;;;;;;5002907;28;20034;-81
2023/06/12 03:08:52;;;;;;;5.60;3.45;;;;;;;;;;5005209;28;20030;-82
2023/06/12 03:11:17;;;;;;;5.15;3.35;;;;;;;;;;4987627;28;20030;-82
2023/06/12 03:13:43;;;;;;;5.05;3.63;;;;;;;;;;5003513;28;20544;-83
2023/06/12 03:16:09;;;;;;;3.88;2.95;;;;;;;;;;5004557;28;20098;-82
2023/06/12 03:18:35;;;;;;;4.43;3.42;;;;;;;;;;5004434;28;20034;-83
2023/06/12 03:21:00;;;;;;;5.30;3.60;;;;;;;;;;4985911;28;20026;-82
2023/06/12 03:23:25;;;;;;;4.93;3.10;;;;;;;;;;4985742;28;20031;-83
2023/06/12 03:25:50;;;;;;;5.32;3.30;;;;;;;;;;4986879;28;20030;-83
2023/06/12 03:28:16;;;;;;;5.15;3.70;;;;;;;;;;5008982;28;20034;-81
2023/06/12 03:30:41;;;;;;;5.60;2.90;;;;;;;;;;5005749;28;20034;-82
2023/06/12 03:33:06;;;;;;;4.10;3.22;;;;;;;;;;4991668;28;20021;-79
2023/06/12 03:35:32;;;;;;;5.78;3.17;;;;;;;;;;4983130;28;20056;-83
2023/06/12 03:37:57;;;;;;;5.07;3.72;;;;;;;;;;5003430;28;20153;-81
2023/06/12 03:40:22;;;;;;;6.38;3.30;;;;;;;;;;5004245;28;20058;-80
2023/06/12 03:42:48;;;;;;;5.30;3.80;;;;;;;;;;5004607;28;20049;-81
2023/06/12 03:45:13;;;;;;;5.88;3.75;;;;;;;;;;4987093;28;20452;-82
2023/06/12 03:47:39;;;;;;;6.28;3.65;;;;;;;;;;5002963;28;20033;-83
2023/06/12 03:50:07;;;;;;;7.75;3.80;;;;;;;;;;5004654;28;20056;-83
2023/06/12 03:52:32;;;;;;;6.93;4.13;;;;;;;;;;5002147;28;20110;-83
2023/06/12 03:54:57;;;;;;;4.47;3.38;;;;;;;;;;5004453;28;20424;-81
2023/06/12 03:57:23;;;;;;;5.72;3.70;;;;;;;;;;5005626;28;20104;-83
2023/06/12 03:59:48;;;;;;;4.65;3.35;;;;;;;;;;5006174;28;20090;-80
2023/06/12 04:02:13;;;;;;;3.85;3.30;;;;;;;;;;4997787;28;20077;-79
2023/06/12 04:04:38;;;;;;;3.92;3.22;;;;;;;;;;4976587;28;20026;-82
2023/06/12 04:07:04;;;;;;;5.20;3.70;;;;;;;;;;4986428;28;20058;-81
2023/06/12 04:09:30;;;;;;;6.43;4.00;;;;;;;;;;5006387;28;20030;-82
2023/06/12 04:11:56;;;;;;;6.45;3.50;;;;;;;;;;5003824;28;20018;-82
2023/06/12 04:14:21;;;;;;;6.60;3.80;;;;;;;;;;5006838;28;20368;-82
2023/06/12 04:16:46;;;;;;;5.10;3.28;;;;;;;;;;5005213;28;20492;-82
2023/06/12 04:19:12;;;;;;;4.75;3.67;;;;;;;;;;4987677;28;20105;-83
2023/06/12 04:21:37;;;;;;;5.97;4.20;;;;;;;;;;4982993;28;20061;-83
2023/06/12 04:24:04;;;;;;;6.38;4.18;;;;;;;;;;5003414;28;20019;-80
2023/06/12 04:26:31;;;;;;;7.10;4.32;;;;;;;;;;4983992;28;20029;-82
2023/06/12 04:28:56;;;;;;;7.65;4.45;;;;;;;;;;5006523;28;20025;-82
2023/06/12 04:31:23;;;;;;;7.88;4.47;;;;;;;;;;4983387;28;20018;-83
2023/06/12 04:33:51;;;;;;;7.20;4.25;;;;;;;;;;5002909;28;20040;-83
2023/06/12 04:36:17;;;;;;;6.65;4.18;;;;;;;;;;4982821;28;20038;-80
2023/06/12 04:38:43;;;;;;;12.40;5.30;;;;;;;;;;5010344;28;20042;-81
2023/06/12 04:41:11;;;;;;;5.07;4.25;;;;;;;;;;5012088;28;20010;-80
2023/06/12 04:43:37;;;;;;;6.90;4.22;;;;;;;;;;4987047;28;20026;-82
2023/06/12 04:46:02;;;;;;;7.75;4.93;;;;;;;;;;4997854;28;20033;-83
2023/06/12 04:48:28;;;;;;;5.55;4.43;;;;;;;;;;4986362;28;20098;-82
2023/06/12 04:50:54;;;;;;;13.48;4.63;;;;;;;;;;4984829;28;20037;-82
2023/06/12 04:53:27;;;;;;;7.15;4.53;;;;;;;;;;4964136;28;20022;-81
2023/06/12 04:55:54;;;;;;;5.20;4.05;;;;;;;;;;5001666;28;20162;-81
2023/06/12 04:58:20;;;;;;;4.88;3.92;;;;;;;;;;5003333;28;20077;-80
2023/06/12 05:00:47;;;;;;;4.68;4.07;;;;;;;;;;4998151;28;20022;-81
2023/06/12 05:03:16;;;;;;;8.18;4.30;;;;;;;;;;4982683;28;20028;-83
2023/06/12 05:05:42;;;;;;;5.50;4.00;;;;;;;;;;5001474;28;20392;-82
2023/06/12 05:08:07;;;;;;;4.38;3.55;;;;;;;;;;4979265;28;20030;-81
2023/06/12 05:10:33;;;;;;;5.82;3.75;;;;;;;;;;4981355;28;20142;-83
2023/06/12 05:12:58;;;;;;;6.03;4.03;;;;;;;;;;4997264;28;20105;-81
2023/06/12 05:15:23;;;;;;;6.60;3.92;;;;;;;;;;4973956;28;20032;-83
2023/06/12 05:17:49;;;;;;;5.97;3.75;;;;;;;;;;5001630;28;20026;-81
2023/06/12 05:20:15;;;;;;;7.30;3.70;;;;;;;;;;4980250;28;20432;-83
2023/06/12 05:22:41;;;;;;;5.65;3.88;;;;;;;;;;4984338;28;20031;-80
2023/06/12 05:25:07;;;;;;;6.82;3.92;;;;;;;;;;5001760;28;20384;-83
2023/06/12 05:27:33;;;;;;;11.35;4.00;;;;;;;;;;4968018;28;20034;-81
2023/06/12 05:29:59;;;;;;;5.97;3.85;;;;;;;;;;4987460;28;20046;-81
2023/06/12 05:32:25;;;;;;;6.15;4.18;;;;;;;;;;4990003;28;20041;-81
2023/06/12 05:34:51;;;;;;;4.55;3.30;;;;;;;;;;5007372;28;20002;-79
2023/06/12 05:37:16;;;;;;;7.32;4.15;;;;;;;;;;4979253;28;20042;-79
2023/06/12 05:39:41;;;;;;;5.45;3.80;;;;;;;;;;5009272;28;20038;-78
2023/06/12 05:42:07;;;;;;;6.20;3.90;;;;;;;;;;4984933;28;20039;-83
2023/06/12 05:44:32;;;;;;;5.57;3.75;;;;;;;;;;4994100;28;20021;-80
2023/06/12 05:46:58;;;;;;;7.82;3.70;;;;;;;;;;5016129;28;20686;-78
2023/06/12 05:49:23;;;;;;;5.32;3.70;;;;;;;;;;5000501;28;20038;-77
2023/06/12 05:51:48;;;;;;;5.47;3.53;;;;;;;;;;5015368;28;20015;-78
2023/06/12 05:54:14;;;;;;;5.93;3.97;;;;;;;;;;4990401;28;20041;-84
2023/06/12 05:56:39;;;;;;;4.55;3.28;;;;;;;;;;4998711;28;20054;-83
2023/06/12 05:59:05;;;;;;;5.80;3.58;;;;;;;;;;4983101;28;20094;-82
2023/06/12 06:01:31;;;;;;;4.32;3.33;;;;;;;;;;5004902;28;20026;-83
2023/06/12 06:03:58;;;;;;;4.60;3.50;;;;;;;;;;4995643;28;20023;-81
2023/06/12 06:06:23;;;;;;;4.88;3.60;;;;;;;;;;4988918;28;20054;-83
2023/06/12 06:08:49;;;;;;;6.38;3.78;;;;;;;;;;5004895;28;20025;-83
2023/06/12 06:11:15;;;;;;;4.60;3.47;;;;;;;;;;4996342;28;20030;-84
2023/06/12 06:13:43;;;;;;;4.38;3.35;;;;;;;;;;5001208;28;20034;-84
2023/06/12 06:16:10;;;;;;;5.63;3.30;;;;;;;;;;4991279;28;20038;-83
2023/06/12 06:18:37;;;;;;;5.68;3.40;;;;;;;;;;4993396;28;20026;-82
2023/06/12 06:21:02;;;;;;;4.88;3.70;;;;;;;;;;4986154;28;20036;-83
2023/06/12 06:23:28;;;;;;;4.72;3.70;;;;;;;;;;4989917;28;20022;-82
2023/06/12 06:25:54;;;;;;;5.45;3.75;;;;;;;;;;5000546;28;20483;-84
2023/06/12 06:28:20;;;;;;;4.70;3.65;;;;;;;;;;4981079;28;20022;-84
2023/06/12 06:30:45;;;;;;;5.40;3.97;;;;;;;;;;5004387;28;20065;-80
2023/06/12 06:33:10;;;;;;;4.95;3.72;;;;;;;;;;4985211;28;20028;-83
2023/06/12 06:35:36;;;;;;;4.40;3.10;;;;;;;;;;4983915;28;20046;-82
2023/06/12 06:38:01;;;;;;;4.68;3.53;;;;;;;;;;5000001;28;20097;-81
2023/06/12 06:40:26;;;;;;;4.82;3.72;;;;;;;;;;5000972;28;20105;-82
2023/06/12 06:42:52;;;;;;;11.75;3.50;;;;;;;;;;4983521;28;20138;-81
2023/06/12 06:45:18;;;;;;;4.20;3.67;;;;;;;;;;4977755;28;20030;-81
2023/06/12 06:47:44;;;;;;;5.28;3.60;;;;;;;;;;5000847;28;20037;-82
2023/06/12 06:50:10;;;;;;;5.47;3.40;;;;;;;;;;4982145;28;20113;-80
2023/06/12 06:52:35;;;;;;;5.18;3.40;;;;;;;;;;4983201;28;20106;-83
2023/06/12 06:55:01;;;;;;;4.28;3.53;;;;;;;;;;5001370;28;20041;-86
2023/06/12 06:57:26;;;;;;;6.38;3.50;;;;;;;;;;4979528;28;20038;-81
2023/06/12 06:59:54;;;;;;;5.70;3.55;;;;;;;;;;4997967;28;20041;-82
2023/06/12 07:02:20;;;;;;;5.28;3.28;;;;;;;;;;5000152;28;20416;-82
2023/06/12 07:04:45;;;;;;;4.15;3.33;;;;;;;;;;4999040;28;20119;-82
2023/06/12 07:07:11;;;;;;;6.35;3.40;;;;;;;;;;4993096;28;20019;-81
2023/06/12 07:09:36;;;;;;;4.90;3.65;;;;;;;;;;4996600;28;20031;-81
2023/06/12 07:12:02;;;;;;;4.78;3.45;;;;;;;;;;4999226;28;20358;-83
2023/06/12 07:14:27;;;;;;;7.70;3.92;;;;;;;;;;4982150;28;20484;-81
2023/06/12 07:16:53;;;;;;;5.25;3.67;;;;;;;;;;5009909;28;20113;-81
2023/06/12 07:19:18;;;;;;;4.22;3.38;;;;;;;;;;4985570;28;20022;-82
2023/06/12 07:21:43;;;;;;;4.60;3.28;;;;;;;;;;4983706;28;20481;-79
2023/06/12 07:24:09;;;;;;;6.07;3.50;;;;;;;;;;4982464;28;20018;-82
2023/06/12 07:26:35;;;;;;;5.25;3.40;;;;;;;;;;4999035;28;20362;-82
2023/06/12 07:29:00;;;;;;;6.28;3.28;;;;;;;;;;4998397;28;20061;-80
2023/06/12 07:31:26;;;;;;;5.10;3.78;;;;;;;;;;4998326;28;20033;-82
2023/06/12 07:33:51;;;;;;;4.68;3.65;;;;;;;;;;4997341;28;20056;-83
2023/06/12 07:36:16;;;;;;;5.65;3.67;;;;;;;;;;4996736;28;20412;-81
2023/06/12 07:38:41;;;;;;;4.30;3.70;;;;;;;;;;4989520;28;20030;-82
2023/06/12 07:41:07;;;;;;;4.20;3.50;;;;;;;;;;4995347;28;20118;-82
2023/06/12 07:43:34;;;;;;;5.75;3.40;;;;;;;;;;4980101;28;20048;-81
2023/06/12 07:46:01;;;;;;;4.55;3.55;;;;;;;;;;4980867;28;20117;-82
2023/06/12 07:48:26;;;;;;;4.82;3.92;;;;;;;;;;5000584;28;20117;-82
2023/06/12 07:50:51;;;;;;;4.40;3.22;;;;;;;;;;5006311;28;20057;-82
2023/06/12 07:53:17;;;;;;;3.78;3.15;;;;;;;;;;5001565;28;20053;-82
2023/06/12 07:55:43;;;;;;;4.25;3.13;;;;;;;;;;4979922;28;20057;-82
2023/06/12 07:58:09;;;;;;;4.88;3.28;;;;;;;;;;4997227;28;20033;-83
2023/06/12 08:00:35;;;;;;;5.38;3.22;;;;;;;;;;4999303;28;20022;-82
2023/06/12 08:03:03;;;;;;;6.25;2.70;;;;;;;;;;4983174;28;20033;-79
2023/06/12 08:05:29;;;;;;;3.90;3.00;;;;;;;;;;4998797;28;20050;-82
2023/06/12 08:07:55;;;;;;;4.32;3.20;;;;;;;;;;4999584;28;20091;-81
2023/06/12 08:10:20;;;;;;;4.25;3.00;;;;;;;;;;5004973;28;20038;-79
2023/06/12 08:12:45;;;;;;;3.63;3.33;;;;;;;;;;5006635;28;20054;-81
2023/06/12 08:15:11;;;;;;;4.32;3.28;;;;;;;;;;4998124;28;20036;-81
2023/06/12 08:17:37;;;;;;;5.45;3.25;;;;;;;;;;4997679;28;20033;-81
2023/06/12 08:20:10;;;;;;;4.32;3.50;;;;;;;;;;4999464;28;20038;-83
2023/06/12 08:22:38;;;;;;;4.70;3.63;;;;;;;;;;5008428;28;20373;-81
2023/06/12 08:25:05;;;;;;;4.13;2.85;;;;;;;;;;4999431;28;20058;-82
2023/06/12 08:27:30;;;;;;;3.13;2.78;;;;;;;;;;4992949;28;20034;-82
2023/06/12 08:29:56;;;;;;;4.95;3.40;;;;;;;;;;5004837;28;20053;-79
2023/06/12 08:32:22;;;;;;;6.43;3.38;;;;;;;;;;5000315;28;20026;-81
2023/06/12 08:34:47;;;;;;;5.90;3.92;;;;;;;;;;4988754;28;20396;-82
2023/06/12 08:37:13;;;;;;;6.78;3.28;;;;;;;;;;5000837;28;20026;-82
2023/06/12 08:39:38;;;;;;;3.47;3.15;;;;;;;;;;5000197;28;20022;-81
2023/06/12 08:42:22;;;;;;;4.13;3.00;;;;;;;;;;4987550;28;20089;-82
2023/06/12 08:44:47;;;;;;;3.58;3.00;;;;;;;;;;4983445;28;20030;-82
2023/06/12 08:47:13;;;;;;;5.25;3.13;;;;;;;;;;4996242;28;20468;-80
2023/06/12 08:49:40;;;;;;;6.30;3.28;;;;;;;;;;5001269;28;20126;-82
2023/06/12 08:52:06;;;;;;;4.72;3.03;;;;;;;;;;4982938;28;20405;-82
2023/06/12 08:54:37;;;;;;;3.63;2.90;;;;;;;;;;5000256;28;20022;-82
2023/06/12 08:57:03;;;;;;;4.45;3.50;;;;;;;;;;4983640;28;20053;-82
2023/06/12 08:59:29;;;;;;;3.42;2.97;;;;;;;;;;4999679;28;20010;-82
2023/06/12 09:01:56;;;;;;;5.78;3.05;;;;;;;;;;4999703;28;20427;-82
2023/06/12 09:04:37;;;;;;;3.67;2.92;;;;;;;;;;5000268;28;20105;-81
2023/06/12 09:07:03;;;;;;;4.40;3.00;;;;;;;;;;4992698;28;20042;-82
2023/06/12 09:09:39;;;;;;;4.18;3.63;;;;;;;;;;4998390;28;20022;-80
2023/06/12 09:12:06;;;;;;;3.95;2.95;;;;;;;;;;4979997;28;20115;-81
2023/06/12 09:14:35;;;;;;;5.30;3.25;;;;;;;;;;4999128;28;20031;-81
2023/06/12 09:17:04;;;;;;;4.82;3.45;;;;;;;;;;4998880;28;20023;-81
2023/06/12 09:19:43;;;;;;;4.38;3.35;;;;;;;;;;4997942;28;20026;-81
2023/06/12 09:22:09;;;;;;;3.67;3.03;;;;;;;;;;4998394;28;20030;-81
2023/06/12 09:24:35;;;;;;;5.05;3.25;;;;;;;;;;4981226;28;20439;-81
2023/06/12 09:27:01;;;;;;;3.10;2.80;;;;;;;;;;4997422;28;20618;-83
2023/06/12 09:29:29;;;;;;;5.18;3.00;;;;;;;;;;4999226;28;20089;-82
2023/06/12 09:31:54;;;;;;;5.38;3.30;;;;;;;;;;4999841;28;20060;-82
2023/06/12 09:34:23;;;;;;;6.32;2.85;;;;;;;;;;4996803;28;20066;-83
2023/06/12 09:36:48;;;;;;;4.22;3.05;;;;;;;;;;4996513;28;20037;-82
2023/06/12 09:39:17;;;;;;;4.03;3.20;;;;;;;;;;4998699;28;20023;-82
2023/06/12 09:41:49;;;;;;;3.72;2.92;;;;;;;;;;4997525;28;20028;-82
2023/06/12 09:44:21;;;;;;;3.08;2.72;;;;;;;;;;4996217;28;20022;-81
2023/06/12 09:46:46;;;;;;;4.07;3.25;;;;;;;;;;4980862;28;20038;-82
2023/06/12 09:49:13;;;;;;;4.13;3.00;;;;;;;;;;5000622;28;20030;-82
2023/06/12 09:51:46;;;;;;;6.32;3.17;;;;;;;;;;5000645;28;20026;-82
2023/06/12 09:54:15;;;;;;;3.40;2.92;;;;;;;;;;5001599;28;20022;-83
2023/06/12 09:56:44;;;;;;;3.40;3.08;;;;;;;;;;5014255;28;20026;-80
2023/06/12 09:59:16;;;;;;;4.10;3.40;;;;;;;;;;5017430;28;20042;-81
2023/06/12 10:01:45;;;;;;;3.92;3.00;;;;;;;;;;4988837;28;20540;-82
2023/06/12 10:04:13;;;;;;;4.47;3.00;;;;;;;;;;5003540;28;20113;-83
2023/06/12 10:06:39;;;;;;;4.45;3.42;;;;;;;;;;5000314;28;20033;-82
2023/06/12 10:09:06;;;;;;;3.92;2.80;;;;;;;;;;4999896;28;20030;-82
2023/06/12 10:11:34;;;;;;;3.85;3.28;;;;;;;;;;5000476;28;20026;-82
2023/06/12 10:13:59;;;;;;;3.95;2.70;;;;;;;;;;5001665;28;20053;-82
2023/06/12 10:16:25;;;;;;;5.85;3.58;;;;;;;;;;4999107;28;20022;-82
2023/06/12 10:18:51;;;;;;;4.95;3.10;;;;;;;;;;4999876;28;20022;-80
2023/06/12 10:21:19;;;;;;;5.25;3.22;;;;;;;;;;4981096;28;20030;-82
2023/06/12 10:23:45;;;;;;;9.73;3.25;;;;;;;;;;5000737;28;20037;-83
2023/06/12 10:26:10;;;;;;;6.18;2.88;;;;;;;;;;4994639;28;20026;-84
2023/06/12 10:28:36;;;;;;;5.13;3.33;;;;;;;;;;4999828;28;20369;-82
2023/06/12 10:31:12;;;;;;;11.75;2.95;;;;;;;;;;5000051;28;20038;-82
2023/06/12 10:34:09;;;;;;;4.38;3.15;;;;;;;;;;4995755;28;20050;-82
2023/06/12 10:36:39;;;;;;;7.07;3.25;;;;;;;;;;5016317;28;20034;-82
2023/06/12 10:39:24;;;;;;;4.15;3.08;;;;;;;;;;5016181;28;20035;-83
2023/06/12 10:41:53;;;;;;;4.20;2.85;;;;;;;;;;5017862;28;20077;-84
2023/06/12 10:44:33;;;;;;;4.88;2.88;;;;;;;;;;5005473;28;20022;-82
2023/06/12 10:47:01;;;;;;;5.25;2.75;;;;;;;;;;5002523;28;20026;-85
2023/06/12 10:49:26;;;;;;;3.28;2.70;;;;;;;;;;5001048;28;20042;-82
2023/06/12 10:51:51;;;;;;;3.45;2.78;;;;;;;;;;5000611;28;20094;-84
2023/06/12 10:54:25;;;;;;;4.65;3.00;;;;;;;;;;4992829;28;20033;-84
2023/06/12 10:57:02;;;;;;;5.60;3.20;;;;;;;;;;4981002;28;20057;-85
2023/06/12 10:59:35;;;;;;;5.22;2.90;;;;;;;;;;4995843;28;20023;-85
2023/06/12 11:02:01;;;;;;;4.40;3.00;;;;;;;;;;4982831;28;20038;-85
2023/06/12 11:04:27;;;;;;;5.82;3.20;;;;;;;;;;5001270;28;20034;-85
2023/06/12 11:06:52;;;;;;;2.67;2.47;;;;;;;;;;5002773;28;20033;-86
2023/06/12 11:09:18;;;;;;;5.05;3.20;;;;;;;;;;4980360;28;20043;-85
2023/06/12 11:11:50;;;;;;;6.55;3.30;;;;;;;;;;4981018;28;20107;-85
2023/06/12 11:14:15;;;;;;;3.08;2.65;;;;;;;;;;4999175;28;20165;-84
2023/06/12 11:16:41;;;;;;;9.88;2.88;;;;;;;;;;4989145;28;20525;-86
2023/06/12 11:19:06;;;;;;;8.10;2.97;;;;;;;;;;4981768;28;20114;-85
2023/06/12 11:21:32;;;;;;;4.35;2.47;;;;;;;;;;4998679;28;20031;-86
2023/06/12 11:24:04;;;;;;;4.25;3.08;;;;;;;;;;4980142;28;20031;-84
2023/06/12 11:26:31;;;;;;;;;;;;;;;;;;4975003;28;20038;-83
2023/06/12 11:29:11;;;;;;;3.25;2.95;;;;;;;;;;4981452;28;19925;-85
2023/06/12 11:31:37;;;;;;;5.68;3.40;;;;;;;;;;4979870;28;20113;-85
2023/06/12 11:34:04;;;;;;;5.18;3.55;;;;;;;;;;4981603;28;20065;-85
2023/06/12 11:36:29;;;;;;;5.65;3.08;;;;;;;;;;4978365;28;20480;-84
2023/06/12 11:38:54;;;;;;;3.95;2.97;;;;;;;;;;4997513;28;20030;-85
2023/06/12 11:41:20;;;;;;;5.97;3.50;;;;;;;;;;4998424;28;20040;-85
2023/06/12 11:43:45;;;;;;;5.13;3.08;;;;;;;;;;4999006;28;20429;-84
2023/06/12 11:46:10;;;;;;;6.22;3.38;;;;;;;;;;4998840;28;20057;-85
2023/06/12 11:48:36;;;;;;;5.50;2.75;;;;;;;;;;4998029;28;20026;-84
2023/06/12 11:51:01;;;;;;;5.72;3.00;;;;;;;;;;4981399;28;20064;-84
2023/06/12 11:53:30;;;;;;;6.57;3.30;;;;;;;;;;4999190;28;20022;-85
2023/06/12 11:56:00;;;;;;;6.40;2.92;;;;;;;;;;4982324;28;20025;-84
2023/06/12 11:58:41;;;;;;;4.88;3.20;;;;;;;;;;4983183;28;20018;-84
2023/06/12 12:01:23;;;;;;;4.78;3.03;;;;;;;;;;4996854;28;20081;-84
2023/06/12 12:03:49;;;;;;;5.75;2.72;;;;;;;;;;4999434;28;20026;-85
2023/06/12 12:06:16;;;;;;;4.55;3.22;;;;;;;;;;4999805;28;20026;-85
2023/06/12 12:08:42;;;;;;;3.30;3.00;;;;;;;;;;5009846;28;20109;-85
2023/06/12 12:11:20;;;;;;;3.85;3.20;;;;;;;;;;4982924;28;20058;-85
2023/06/12 12:13:58;;;;;;;3.97;3.03;;;;;;;;;;4983491;28;20026;-85
2023/06/12 12:16:28;;;;;;;3.72;2.67;;;;;;;;;;4999524;28;20037;-84
2023/06/12 12:18:54;;;;;;;4.05;2.83;;;;;;;;;;4983040;28;20023;-85
2023/06/12 12:21:22;;;;;;;3.50;2.97;;;;;;;;;;4994551;28;20042;-84
2023/06/12 12:23:47;;;;;;;6.25;2.80;;;;;;;;;;4982385;28;20231;-85
2023/06/12 12:26:13;;;;;;;4.07;2.80;;;;;;;;;;4993284;28;20035;-85
2023/06/12 12:28:39;;;;;;;5.90;3.45;;;;;;;;;;4993382;28;20031;-86
2023/06/12 12:31:05;;;;;;;3.30;3.00;;;;;;;;;;4978175;28;20030;-85
2023/06/12 12:33:31;;;;;;;4.97;3.03;;;;;;;;;;4987031;28;20029;-85
2023/06/12 12:35:59;;;;;;;6.03;3.20;;;;;;;;;;5000977;28;20422;-84
2023/06/12 12:38:24;;;;;;;2.92;2.50;;;;;;;;;;4988476;28;20023;-85
2023/06/12 12:40:50;;;;;;;5.30;2.90;;;;;;;;;;4982199;28;20026;-85
2023/06/12 12:43:15;;;;;;;4.03;3.28;;;;;;;;;;4982106;28;20026;-85
2023/06/12 12:45:40;;;;;;;3.72;3.03;;;;;;;;;;4997059;28;20109;-85
2023/06/12 12:48:06;;;;;;;8.35;2.85;;;;;;;;;;4979711;28;20030;-85
2023/06/12 12:50:31;;;;;;;5.32;3.17;;;;;;;;;;4999449;28;20022;-85
2023/06/12 12:52:56;;;;;;;3.40;2.92;;;;;;;;;;4980805;28;20117;-85
2023/06/12 12:55:22;;;;;;;4.97;3.47;;;;;;;;;;4999081;28;20026;-85
2023/06/12 12:57:47;;;;;;;5.65;3.00;;;;;;;;;;5006103;28;20525;-85
2023/06/12 13:00:17;;;;;;;5.45;3.13;;;;;;;;;;4996680;28;20057;-85
2023/06/12 13:02:43;;;;;;;3.95;2.95;;;;;;;;;;4980953;28;20062;-85
2023/06/12 13:05:10;;;;;;;3.97;3.08;;;;;;;;;;4981035;28;20034;-85
2023/06/12 13:07:37;;;;;;;5.55;2.60;;;;;;;;;;4995502;28;20560;-85
2023/06/12 13:10:13;;;;;;;3.58;2.90;;;;;;;;;;4978655;28;20030;-85
2023/06/12 13:12:39;;;;;;;8.85;3.58;;;;;;;;;;4978565;28;20055;-85
2023/06/12 13:15:06;;;;;;;4.85;2.92;;;;;;;;;;4982529;28;20027;-85
2023/06/12 13:17:32;;;;;;;5.13;3.00;;;;;;;;;;4998136;28;20033;-85
2023/06/12 13:19:57;;;;;;;7.75;3.35;;;;;;;;;;4997942;28;20062;-85
2023/06/12 13:22:23;;;;;;;5.13;2.72;;;;;;;;;;4994984;28;20135;-83
2023/06/12 13:24:48;;;;;;;3.95;3.22;;;;;;;;;;5000241;28;20544;-84
2023/06/12 13:27:13;;;;;;;7.47;3.10;;;;;;;;;;4982063;28;20034;-85
2023/06/12 13:29:39;;;;;;;4.18;2.80;;;;;;;;;;4999384;28;20033;-83
2023/06/12 13:32:05;;;;;;;4.13;3.03;;;;;;;;;;5000645;28;20234;-85
2023/06/12 13:34:30;;;;;;;5.05;3.25;;;;;;;;;;5000085;28;20031;-85
2023/06/12 13:36:56;;;;;;;3.20;2.72;;;;;;;;;;4987241;28;20085;-84
2023/06/12 13:39:21;;;;;;;11.40;3.05;;;;;;;;;;4984425;28;20042;-85
2023/06/12 13:41:47;;;;;;;3.83;3.22;;;;;;;;;;4980656;28;20034;-85
2023/06/12 13:44:12;;;;;;;3.95;3.00;;;;;;;;;;4982625;28;20089;-84
2023/06/12 13:46:38;;;;;;;5.70;3.22;;;;;;;;;;4999926;28;20030;-84
2023/06/12 13:49:04;;;;;;;6.50;2.90;;;;;;;;;;4979831;28;20078;-84
2023/06/12 13:51:34;;;;;;;4.28;3.22;;;;;;;;;;4999408;28;20089;-84
2023/06/12 13:54:00;;;;;;;5.47;3.35;;;;;;;;;;5001111;28;20026;-84
2023/06/12 13:56:27;;;;;;;6.55;3.05;;;;;;;;;;5009545;28;20042;-84
2023/06/12 13:58:52;;;;;;;6.93;3.55;;;;;;;;;;5001768;28;20029;-84
2023/06/12 14:01:18;;;;;;;4.65;3.35;;;;;;;;;;4982080;28;20029;-83
2023/06/12 14:03:43;;;;;;;5.28;2.92;;;;;;;;;;5000484;28;20038;-84
2023/06/12 14:06:09;;;;;;;3.65;2.88;;;;;;;;;;4998587;28;20052;-85
2023/06/12 14:08:40;;;;;;;5.78;3.25;;;;;;;;;;4983996;28;20384;-85
2023/06/12 14:11:08;;;;;;;8.07;3.00;;;;;;;;;;4994860;28;20036;-84
2023/06/12 14:13:34;;;;;;;4.20;3.05;;;;;;;;;;4995723;28;20034;-84
2023/06/12 14:16:03;;;;;;;4.78;2.95;;;;;;;;;;4991312;28;20040;-84
2023/06/12 14:18:29;;;;;;;3.75;2.88;;;;;;;;;;5006288;28;20022;-85
2023/06/12 14:20:55;;;;;;;4.70;2.83;;;;;;;;;;5008006;28;20053;-85
2023/06/12 14:23:22;;;;;;;3.60;2.88;;;;;;;;;;4983251;28;20034;-84
2023/06/12 14:25:47;;;;;;;4.35;2.88;;;;;;;;;;4997039;28;20109;-85
2023/06/12 14:28:13;;;;;;;6.57;3.45;;;;;;;;;;4985138;28;20065;-83
2023/06/12 14:30:38;;;;;;;4.75;3.50;;;;;;;;;;5001660;28;20022;-85
2023/06/12 14:33:03;;;;;;;5.68;2.90;;;;;;;;;;5001262;28;20405;-85
2023/06/12 14:35:29;;;;;;;5.00;3.05;;;;;;;;;;4997995;28;20077;-84
2023/06/12 14:37:54;;;;;;;15.05;3.10;;;;;;;;;;4984065;28;20018;-84
2023/06/12 14:40:20;;;;;;;6.07;3.53;;;;;;;;;;4993293;28;20026;-84
2023/06/12 14:42:45;;;;;;;3.47;2.78;;;;;;;;;;4983056;28;20121;-84